Time;durP1;ratioP1;P1;durP2;ratioP2;P2;SDS_P1;SDS_P2;PMS_P1;PMS_P2;Temp;Humidity;BMP_temperature;BMP_pressure;BME280_temperature;BME280_humidity;BME280_pressure;Samples;Min_cycle;Max_cycle;Signal;HPM_P1;HPM_P2
2022/03/27 00:01:40;;;;;;;24.08;11.27;;;;;;;;;;5033731;28;20512;-92
2022/03/27 00:04:05;;;;;;;25.00;11.65;;;;;;;;;;5033959;28;20021;-95
2022/03/27 00:06:30;;;;;;;21.70;9.48;;;;;;;;;;5033950;28;20023;-91
2022/03/27 00:08:56;;;;;;;24.05;11.32;;;;;;;;;;5049717;28;20017;-95
2022/03/27 00:11:24;;;;;;;23.88;11.48;;;;;;;;;;5033468;28;20014;-93
2022/03/27 00:13:53;;;;;;;24.85;11.52;;;;;;;;;;5033138;28;20119;-95
2022/03/27 00:16:19;;;;;;;23.92;10.57;;;;;;;;;;5033114;28;20071;-85
2022/03/27 00:18:44;;;;;;;25.35;9.30;;;;;;;;;;5033194;28;20021;-95
2022/03/27 00:21:09;;;;;;;22.45;11.07;;;;;;;;;;5049586;28;20021;-95
2022/03/27 00:23:35;;;;;;;22.83;9.90;;;;;;;;;;5048903;28;20106;-95
2022/03/27 00:26:00;;;;;;;23.67;11.20;;;;;;;;;;5049719;28;20112;-94
2022/03/27 00:28:25;;;;;;;25.55;11.32;;;;;;;;;;5032940;28;20104;-95
2022/03/27 00:30:51;;;;;;;22.70;10.35;;;;;;;;;;5033010;28;20018;-95
2022/03/27 00:33:18;;;;;;;22.73;10.00;;;;;;;;;;5033928;28;20451;-95
2022/03/27 00:35:44;;;;;;;21.73;9.63;;;;;;;;;;5049520;28;20033;-95
2022/03/27 00:38:09;;;;;;;21.92;9.73;;;;;;;;;;5033814;28;20375;-94
2022/03/27 00:40:34;;;;;;;25.80;10.73;;;;;;;;;;5049454;28;20164;-94
2022/03/27 00:42:59;;;;;;;23.50;10.50;;;;;;;;;;5049347;28;20044;-87
2022/03/27 00:45:25;;;;;;;24.02;10.50;;;;;;;;;;5049473;28;20057;-94
2022/03/27 00:47:50;;;;;;;22.40;10.30;;;;;;;;;;5049455;28;20026;-92
2022/03/27 00:50:15;;;;;;;23.95;11.02;;;;;;;;;;5032130;28;20120;-85
2022/03/27 00:52:40;;;;;;;23.10;10.65;;;;;;;;;;5032348;28;20389;-94
2022/03/27 00:55:06;;;;;;;21.83;11.05;;;;;;;;;;5032532;28;20458;-95
2022/03/27 00:57:31;;;;;;;27.40;12.85;;;;;;;;;;5032450;28;20067;-94
2022/03/27 00:59:56;;;;;;;28.17;12.32;;;;;;;;;;5032453;28;20116;-94
2022/03/27 01:02:23;;;;;;;31.63;12.80;;;;;;;;;;5033640;28;20121;-95
2022/03/27 01:04:52;;;;;;;26.35;12.93;;;;;;;;;;5032314;28;20025;-94
2022/03/27 01:07:18;;;;;;;29.08;12.68;;;;;;;;;;5031831;28;20026;-93
2022/03/27 01:09:44;;;;;;;26.65;12.45;;;;;;;;;;5031507;28;20468;-86
2022/03/27 01:12:14;;;;;;;27.95;12.35;;;;;;;;;;5033260;28;20033;-88
2022/03/27 01:14:40;;;;;;;26.88;11.18;;;;;;;;;;5032658;28;20021;-95
2022/03/27 01:17:08;;;;;;;22.45;10.55;;;;;;;;;;5032601;28;20021;-95
2022/03/27 01:19:33;;;;;;;25.13;12.15;;;;;;;;;;5031893;28;20029;-95
2022/03/27 01:22:00;;;;;;;28.42;13.38;;;;;;;;;;5032033;28;20040;-95
2022/03/27 01:24:26;;;;;;;27.80;12.68;;;;;;;;;;5049071;28;20096;-94
2022/03/27 01:26:51;;;;;;;28.00;12.93;;;;;;;;;;5032150;28;20512;-93
2022/03/27 01:29:17;;;;;;;27.75;12.63;;;;;;;;;;5031411;28;20028;-95
2022/03/27 01:31:42;;;;;;;25.58;12.55;;;;;;;;;;5031802;28;20045;-94
2022/03/27 01:34:08;;;;;;;30.33;13.60;;;;;;;;;;5032707;28;20389;-89
2022/03/27 01:36:34;;;;;;;27.55;13.30;;;;;;;;;;5031674;28;20501;-94
2022/03/27 01:39:00;;;;;;;27.65;13.45;;;;;;;;;;5031555;28;20025;-86
2022/03/27 01:41:26;;;;;;;28.55;13.23;;;;;;;;;;5031567;28;20025;-88
2022/03/27 01:43:51;;;;;;;25.40;12.57;;;;;;;;;;5032236;28;20433;-92
2022/03/27 01:46:16;;;;;;;25.73;11.55;;;;;;;;;;5032224;28;20112;-92
2022/03/27 01:48:41;;;;;;;22.90;11.48;;;;;;;;;;5031443;28;20035;-95
2022/03/27 01:51:07;;;;;;;22.38;9.82;;;;;;;;;;5031552;28;20022;-86
2022/03/27 01:53:32;;;;;;;25.45;10.65;;;;;;;;;;5031370;28;20030;-95
2022/03/27 01:55:58;;;;;;;19.98;9.82;;;;;;;;;;5031376;28;20025;-94
2022/03/27 01:58:23;;;;;;;23.55;11.13;;;;;;;;;;5048615;28;20235;-95
2022/03/27 02:00:48;;;;;;;27.23;11.50;;;;;;;;;;5032995;28;20017;-95
2022/03/27 02:03:14;;;;;;;29.83;12.98;;;;;;;;;;5031653;28;20021;-95
2022/03/27 02:05:39;;;;;;;29.90;12.85;;;;;;;;;;5031266;28;20095;-95
2022/03/27 02:08:04;;;;;;;26.33;12.98;;;;;;;;;;5032880;28;20025;-94
2022/03/27 02:10:29;;;;;;;35.90;15.13;;;;;;;;;;5031729;28;20496;-94
2022/03/27 02:12:55;;;;;;;28.77;13.65;;;;;;;;;;5032888;28;20024;-94
2022/03/27 02:15:20;;;;;;;28.55;12.38;;;;;;;;;;5031750;28;20017;-84
2022/03/27 02:17:45;;;;;;;29.83;12.45;;;;;;;;;;5032011;28;20057;-95
2022/03/27 02:20:11;;;;;;;26.15;11.70;;;;;;;;;;5032645;28;20117;-91
2022/03/27 02:22:36;;;;;;;24.92;12.43;;;;;;;;;;5031021;28;20033;-93
2022/03/27 02:25:02;;;;;;;24.73;11.48;;;;;;;;;;5030877;28;20022;-94
2022/03/27 02:27:27;;;;;;;23.90;10.88;;;;;;;;;;5030825;28;20521;-96
2022/03/27 02:29:52;;;;;;;23.45;10.90;;;;;;;;;;5030861;28;20022;-92
2022/03/27 02:32:17;;;;;;;24.02;10.32;;;;;;;;;;5030942;28;20021;-95
2022/03/27 02:34:43;;;;;;;25.80;10.88;;;;;;;;;;5047542;28;20014;-94
2022/03/27 02:37:08;;;;;;;25.13;11.13;;;;;;;;;;5031327;28;20029;-95
2022/03/27 02:39:33;;;;;;;25.80;11.30;;;;;;;;;;5031366;28;20021;-94
2022/03/27 02:41:58;;;;;;;23.00;10.10;;;;;;;;;;5031413;28;20394;-95
2022/03/27 02:44:24;;;;;;;27.20;12.50;;;;;;;;;;5031378;28;20118;-94
2022/03/27 02:46:50;;;;;;;25.35;12.15;;;;;;;;;;5034215;28;20037;-92
2022/03/27 02:49:16;;;;;;;27.30;12.02;;;;;;;;;;5051252;28;20434;-85
2022/03/27 02:51:44;;;;;;;23.48;10.88;;;;;;;;;;5034310;28;20037;-94
2022/03/27 02:54:09;;;;;;;25.45;11.45;;;;;;;;;;5034172;28;20076;-86
2022/03/27 02:56:35;;;;;;;30.55;13.45;;;;;;;;;;5035133;28;20412;-94
2022/03/27 02:59:00;;;;;;;27.83;12.98;;;;;;;;;;5051453;28;20056;-88
2022/03/27 03:01:25;;;;;;;30.52;12.65;;;;;;;;;;5051072;28;20117;-94
2022/03/27 03:03:50;;;;;;;30.50;13.52;;;;;;;;;;5034032;28;20535;-94
2022/03/27 03:06:16;;;;;;;28.27;12.18;;;;;;;;;;5033818;28;20024;-94
2022/03/27 03:08:41;;;;;;;25.48;11.50;;;;;;;;;;5034246;28;20017;-95
2022/03/27 03:11:06;;;;;;;28.55;13.50;;;;;;;;;;5035462;28;20021;-96
2022/03/27 03:13:32;;;;;;;28.05;14.05;;;;;;;;;;5036100;28;20458;-94
2022/03/27 03:15:57;;;;;;;26.27;13.27;;;;;;;;;;5034605;28;20018;-95
2022/03/27 03:18:23;;;;;;;28.73;13.27;;;;;;;;;;5034608;28;20013;-94
2022/03/27 03:20:48;;;;;;;32.55;14.52;;;;;;;;;;5034559;28;20116;-95
2022/03/27 03:23:13;;;;;;;52.97;30.90;;;;;;;;;;5049846;28;20116;-95
2022/03/27 03:25:39;;;;;;;38.85;19.60;;;;;;;;;;5033206;28;20045;-94
2022/03/27 03:28:04;;;;;;;35.03;18.48;;;;;;;;;;5032852;28;20095;-95
2022/03/27 03:30:29;;;;;;;37.75;20.52;;;;;;;;;;5020988;28;20500;-95
2022/03/27 03:32:54;;;;;;;31.77;15.18;;;;;;;;;;5024848;28;20049;-95
2022/03/27 03:35:20;;;;;;;26.83;12.90;;;;;;;;;;5014410;28;20030;-93
2022/03/27 03:37:45;;;;;;;28.75;15.55;;;;;;;;;;5027824;28;20474;-94
2022/03/27 03:40:10;;;;;;;30.65;16.98;;;;;;;;;;5033613;28;20033;-85
2022/03/27 03:42:36;;;;;;;30.70;16.75;;;;;;;;;;5031189;28;20041;-95
2022/03/27 03:45:03;;;;;;;30.98;16.38;;;;;;;;;;5022647;28;20042;-94
2022/03/27 03:47:28;;;;;;;28.67;14.65;;;;;;;;;;5014155;28;20026;-95
2022/03/27 03:49:53;;;;;;;28.80;13.98;;;;;;;;;;5013748;28;20553;-92
2022/03/27 03:52:19;;;;;;;29.17;14.40;;;;;;;;;;5029486;28;20022;-95
2022/03/27 03:54:44;;;;;;;28.27;12.73;;;;;;;;;;5033703;28;20022;-85
2022/03/27 03:57:09;;;;;;;28.42;14.13;;;;;;;;;;5032749;28;20120;-85
2022/03/27 03:59:36;;;;;;;27.25;13.50;;;;;;;;;;5034595;28;20382;-94
2022/03/27 04:02:02;;;;;;;27.98;14.70;;;;;;;;;;5033313;28;20103;-94
2022/03/27 04:04:28;;;;;;;24.38;10.93;;;;;;;;;;5034702;28;20057;-94
2022/03/27 04:06:53;;;;;;;30.92;14.43;;;;;;;;;;5033800;28;20025;-94
2022/03/27 04:09:20;;;;;;;25.80;12.15;;;;;;;;;;5033503;28;20021;-86
2022/03/27 04:11:45;;;;;;;24.73;12.40;;;;;;;;;;5034595;28;20021;-95
2022/03/27 04:14:11;;;;;;;24.17;12.00;;;;;;;;;;5033644;28;20040;-95
2022/03/27 04:16:36;;;;;;;26.50;12.35;;;;;;;;;;5033580;28;20489;-95
2022/03/27 04:19:02;;;;;;;28.02;11.43;;;;;;;;;;5032988;28;20022;-94
2022/03/27 04:21:27;;;;;;;24.70;10.55;;;;;;;;;;5032933;28;20030;-86
2022/03/27 04:23:52;;;;;;;23.77;10.27;;;;;;;;;;5033246;28;20041;-95
2022/03/27 04:26:18;;;;;;;25.33;12.07;;;;;;;;;;5034294;28;20045;-94
2022/03/27 04:28:43;;;;;;;24.70;11.87;;;;;;;;;;5033118;28;20021;-95
2022/03/27 04:31:08;;;;;;;24.87;11.83;;;;;;;;;;5033117;28;20018;-95
2022/03/27 04:33:33;;;;;;;26.25;12.27;;;;;;;;;;5032715;28;20378;-94
2022/03/27 04:35:59;;;;;;;29.97;12.27;;;;;;;;;;5033695;28;20314;-95
2022/03/27 04:38:24;;;;;;;25.92;11.02;;;;;;;;;;5032462;28;20032;-95
2022/03/27 04:40:50;;;;;;;22.90;10.98;;;;;;;;;;5032641;28;20076;-95
2022/03/27 04:43:16;;;;;;;27.50;12.25;;;;;;;;;;5032548;28;20224;-95
2022/03/27 04:45:41;;;;;;;25.77;12.60;;;;;;;;;;5033017;28;20053;-85
2022/03/27 04:48:06;;;;;;;25.42;11.88;;;;;;;;;;5033420;28;20112;-90
2022/03/27 04:50:31;;;;;;;27.10;11.57;;;;;;;;;;5032414;28;20385;-93
2022/03/27 04:52:57;;;;;;;27.52;11.65;;;;;;;;;;5032735;28;20049;-94
2022/03/27 04:55:22;;;;;;;27.63;11.40;;;;;;;;;;5032634;28;20033;-93
2022/03/27 04:57:48;;;;;;;25.40;11.27;;;;;;;;;;5032852;28;20017;-94
2022/03/27 05:00:14;;;;;;;24.00;11.30;;;;;;;;;;5033852;28;20013;-93
2022/03/27 05:02:40;;;;;;;26.05;12.23;;;;;;;;;;5032239;28;20112;-85
2022/03/27 05:05:06;;;;;;;23.80;11.63;;;;;;;;;;5031720;28;20018;-94
2022/03/27 05:07:32;;;;;;;23.83;10.75;;;;;;;;;;5032477;28;20432;-90
2022/03/27 05:09:57;;;;;;;25.00;11.50;;;;;;;;;;5031743;28;20026;-86
2022/03/27 05:12:22;;;;;;;29.13;13.23;;;;;;;;;;5032481;28;20025;-94
2022/03/27 05:14:48;;;;;;;27.63;12.68;;;;;;;;;;5032378;28;20421;-95
2022/03/27 05:17:13;;;;;;;27.98;11.63;;;;;;;;;;5032356;28;20462;-94
2022/03/27 05:19:38;;;;;;;22.15;10.43;;;;;;;;;;5031876;28;20486;-93
2022/03/27 05:22:04;;;;;;;26.85;12.10;;;;;;;;;;5031917;28;20482;-85
2022/03/27 05:24:29;;;;;;;22.80;11.07;;;;;;;;;;5032312;28;20013;-94
2022/03/27 05:26:54;;;;;;;26.10;12.67;;;;;;;;;;5032319;28;20121;-95
2022/03/27 05:29:21;;;;;;;25.48;11.15;;;;;;;;;;5032114;28;20028;-95
2022/03/27 05:31:46;;;;;;;24.53;11.37;;;;;;;;;;5031804;28;20075;-95
2022/03/27 05:34:11;;;;;;;26.50;13.60;;;;;;;;;;5031455;28;20018;-94
2022/03/27 05:36:36;;;;;;;26.80;12.80;;;;;;;;;;5031511;28;20378;-94
2022/03/27 05:39:02;;;;;;;25.60;12.20;;;;;;;;;;5032616;28;20057;-94
2022/03/27 05:41:27;;;;;;;33.20;13.32;;;;;;;;;;5031383;28;20108;-94
2022/03/27 05:43:52;;;;;;;26.60;12.30;;;;;;;;;;5033015;28;20025;-94
2022/03/27 05:46:18;;;;;;;27.70;12.43;;;;;;;;;;5033220;28;20418;-96
2022/03/27 05:48:43;;;;;;;25.50;12.33;;;;;;;;;;5031461;28;20386;-94
2022/03/27 05:51:08;;;;;;;30.07;13.17;;;;;;;;;;5032015;28;20470;-94
2022/03/27 05:53:33;;;;;;;28.37;13.97;;;;;;;;;;5031427;28;20017;-94
2022/03/27 05:55:59;;;;;;;28.00;12.77;;;;;;;;;;5031798;28;20021;-94
2022/03/27 05:58:25;;;;;;;26.58;11.68;;;;;;;;;;5031537;28;20474;-94
2022/03/27 06:00:53;;;;;;;28.25;12.38;;;;;;;;;;5031955;28;20025;-85
2022/03/27 06:03:18;;;;;;;27.97;12.63;;;;;;;;;;5031398;28;20040;-95
2022/03/27 06:05:44;;;;;;;32.80;13.20;;;;;;;;;;5031608;28;20017;-85
2022/03/27 06:08:09;;;;;;;26.85;11.98;;;;;;;;;;5032511;28;20029;-96
2022/03/27 06:10:35;;;;;;;28.67;12.17;;;;;;;;;;5031456;28;20014;-85
2022/03/27 06:13:01;;;;;;;27.35;12.52;;;;;;;;;;5031540;28;20029;-85
2022/03/27 06:15:27;;;;;;;26.20;12.68;;;;;;;;;;5032766;28;20051;-96
2022/03/27 06:17:53;;;;;;;27.87;13.13;;;;;;;;;;5031282;28;20116;-94
2022/03/27 06:20:19;;;;;;;29.23;12.07;;;;;;;;;;5031854;28;20386;-94
2022/03/27 06:22:45;;;;;;;28.73;12.98;;;;;;;;;;5035080;28;20120;-88
2022/03/27 06:25:11;;;;;;;26.50;12.60;;;;;;;;;;5035480;28;20533;-85
2022/03/27 06:27:36;;;;;;;31.75;14.80;;;;;;;;;;5036086;28;20025;-88
2022/03/27 06:30:03;;;;;;;32.53;13.68;;;;;;;;;;5036572;28;20163;-96
2022/03/27 06:32:28;;;;;;;31.90;17.10;;;;;;;;;;5037833;28;20486;-85
2022/03/27 06:34:57;;;;;;;33.75;17.65;;;;;;;;;;5037963;28;20021;-84
2022/03/27 06:37:23;;;;;;;31.33;16.35;;;;;;;;;;5034956;28;20111;-92
2022/03/27 06:39:49;;;;;;;35.78;16.67;;;;;;;;;;5035053;28;20422;-93
2022/03/27 06:42:14;;;;;;;35.67;17.55;;;;;;;;;;5036127;28;20037;-93
2022/03/27 06:44:39;;;;;;;34.63;17.23;;;;;;;;;;5035072;28;20477;-86
2022/03/27 06:47:06;;;;;;;36.53;17.45;;;;;;;;;;5034782;28;20031;-93
2022/03/27 06:49:31;;;;;;;36.30;19.57;;;;;;;;;;5036206;28;20033;-87
2022/03/27 06:51:56;;;;;;;41.17;19.90;;;;;;;;;;5034931;28;20462;-93
2022/03/27 06:54:21;;;;;;;37.10;19.80;;;;;;;;;;5034794;28;20469;-93
2022/03/27 06:56:46;;;;;;;42.17;20.35;;;;;;;;;;5035009;28;20466;-89
2022/03/27 06:59:12;;;;;;;38.90;19.83;;;;;;;;;;5034329;28;20051;-93
2022/03/27 07:04:21;;;;;;;39.08;20.67;;;;;;;;;;5035852;28;20090;-86
2022/03/27 07:06:46;;;;;;;37.90;18.70;;;;;;;;;;5033644;28;20025;-93
2022/03/27 07:09:13;;;;;;;39.67;19.27;;;;;;;;;;5027532;28;20037;-86
2022/03/27 07:11:38;;;;;;;38.90;20.05;;;;;;;;;;5013598;28;20052;-88
2022/03/27 07:14:03;;;;;;;35.38;18.75;;;;;;;;;;5014501;28;20030;-89
2022/03/27 07:16:30;;;;;;;41.83;19.05;;;;;;;;;;5012637;28;20045;-94
2022/03/27 07:18:55;;;;;;;37.72;19.67;;;;;;;;;;5022900;28;20129;-91
2022/03/27 07:21:20;;;;;;;37.15;18.15;;;;;;;;;;5033538;28;20022;-93
2022/03/27 07:23:46;;;;;;;38.72;18.38;;;;;;;;;;5032637;28;20025;-92
2022/03/27 07:26:11;;;;;;;42.28;23.65;;;;;;;;;;5033499;28;20013;-86
2022/03/27 07:28:36;;;;;;;54.67;29.60;;;;;;;;;;5032922;28;20056;-94
2022/03/27 07:31:02;;;;;;;56.63;30.75;;;;;;;;;;5029144;28;20537;-94
2022/03/27 07:33:27;;;;;;;45.10;24.27;;;;;;;;;;5013769;28;20483;-93
2022/03/27 07:35:53;;;;;;;45.10;24.98;;;;;;;;;;5014084;28;20040;-94
2022/03/27 07:38:18;;;;;;;45.33;24.00;;;;;;;;;;5013403;28;20025;-93
2022/03/27 07:40:43;;;;;;;46.78;25.77;;;;;;;;;;5030430;28;20108;-92
2022/03/27 07:43:08;;;;;;;41.08;22.88;;;;;;;;;;5033047;28;20436;-93
2022/03/27 07:45:35;;;;;;;43.13;21.23;;;;;;;;;;5050054;28;20063;-93
2022/03/27 07:48:00;;;;;;;35.28;19.35;;;;;;;;;;5049898;28;20030;-93
2022/03/27 07:50:27;;;;;;;38.38;21.52;;;;;;;;;;5049268;28;20037;-92
2022/03/27 07:52:52;;;;;;;40.40;22.17;;;;;;;;;;5049850;28;20040;-85
2022/03/27 07:55:18;;;;;;;46.55;27.13;;;;;;;;;;5050104;28;20049;-86
2022/03/27 07:57:43;;;;;;;47.25;26.00;;;;;;;;;;5035030;28;20025;-94
2022/03/27 08:00:12;;;;;;;46.15;26.45;;;;;;;;;;5023382;28;20049;-92
2022/03/27 08:02:37;;;;;;;49.70;25.58;;;;;;;;;;5015438;28;20041;-92
2022/03/27 08:05:04;;;;;;;42.47;21.95;;;;;;;;;;5030657;28;20010;-92
2022/03/27 08:07:29;;;;;;;42.13;20.92;;;;;;;;;;5030564;28;20026;-92
2022/03/27 08:09:54;;;;;;;37.80;22.13;;;;;;;;;;5014959;28;20075;-91
2022/03/27 08:12:20;;;;;;;40.75;21.95;;;;;;;;;;5030691;28;20025;-92
2022/03/27 08:14:48;;;;;;;36.88;19.67;;;;;;;;;;5015368;28;20018;-91
2022/03/27 08:17:13;;;;;;;52.92;26.88;;;;;;;;;;5014245;28;20025;-91
2022/03/27 08:19:38;;;;;;;35.35;18.27;;;;;;;;;;5014933;28;20018;-92
2022/03/27 08:22:04;;;;;;;33.38;18.77;;;;;;;;;;5030252;28;20095;-93
2022/03/27 08:24:30;;;;;;;38.88;18.45;;;;;;;;;;5030357;28;20022;-89
2022/03/27 08:27:00;;;;;;;36.55;18.83;;;;;;;;;;5014898;28;20021;-93
2022/03/27 08:29:31;;;;;;;33.50;17.20;;;;;;;;;;5030209;28;20022;-93
2022/03/27 08:32:00;;;;;;;35.95;17.67;;;;;;;;;;5014721;28;20018;-94
2022/03/27 08:34:26;;;;;;;32.08;17.02;;;;;;;;;;5030079;28;20061;-95
2022/03/27 08:36:51;;;;;;;32.65;17.15;;;;;;;;;;5029799;28;20025;-93
2022/03/27 08:39:18;;;;;;;31.85;17.55;;;;;;;;;;5014767;28;20022;-94
2022/03/27 08:41:44;;;;;;;31.50;16.80;;;;;;;;;;5014747;28;20037;-94
2022/03/27 08:44:15;;;;;;;31.73;16.48;;;;;;;;;;5013991;28;20032;-94
2022/03/27 08:46:41;;;;;;;31.95;17.38;;;;;;;;;;5030156;28;20033;-89
2022/03/27 08:49:30;;;;;;;35.88;18.55;;;;;;;;;;5014171;28;20076;-94
2022/03/27 08:52:02;;;;;;;31.98;17.13;;;;;;;;;;5019186;28;20030;-94
2022/03/27 08:54:54;;;;;;;33.33;16.98;;;;;;;;;;5013193;28;20029;-93
2022/03/27 08:57:24;;;;;;;32.72;16.73;;;;;;;;;;4991250;28;20065;-94
2022/03/27 08:59:53;;;;;;;31.55;16.48;;;;;;;;;;5014131;28;20022;-95
2022/03/27 09:02:22;;;;;;;32.03;16.20;;;;;;;;;;5012861;28;20120;-88
2022/03/27 09:04:48;;;;;;;32.75;16.63;;;;;;;;;;5013804;28;20053;-93
2022/03/27 09:07:13;;;;;;;33.20;17.85;;;;;;;;;;5012897;28;20034;-93
2022/03/27 09:09:38;;;;;;;30.27;15.73;;;;;;;;;;5030118;28;20689;-94
2022/03/27 09:12:04;;;;;;;30.35;16.55;;;;;;;;;;5013902;28;20021;-93
2022/03/27 09:14:31;;;;;;;36.00;17.92;;;;;;;;;;5015278;28;20018;-94
2022/03/27 09:17:00;;;;;;;33.42;15.98;;;;;;;;;;5028260;28;20370;-84
2022/03/27 09:19:39;;;;;;;32.75;15.85;;;;;;;;;;5029352;28;20087;-89
2022/03/27 09:22:15;;;;;;;27.40;14.93;;;;;;;;;;5028915;28;20048;-93
2022/03/27 09:24:41;;;;;;;30.58;15.52;;;;;;;;;;5029023;28;20049;-91
2022/03/27 09:27:07;;;;;;;28.85;15.45;;;;;;;;;;5013569;28;20108;-91
2022/03/27 09:29:53;;;;;;;28.08;15.77;;;;;;;;;;5030902;28;20100;-91
2022/03/27 09:32:25;;;;;;;30.83;16.92;;;;;;;;;;5026673;28;20471;-93
2022/03/27 09:35:02;;;;;;;28.05;15.23;;;;;;;;;;5013159;28;20026;-92
2022/03/27 09:37:31;;;;;;;33.00;16.02;;;;;;;;;;5028885;28;20037;-93
2022/03/27 09:39:57;;;;;;;30.58;15.90;;;;;;;;;;5028025;28;20026;-93
2022/03/27 09:42:23;;;;;;;31.77;16.50;;;;;;;;;;5025962;28;20041;-93
2022/03/27 09:44:50;;;;;;;29.90;15.07;;;;;;;;;;5045461;28;20108;-92
2022/03/27 09:47:15;;;;;;;26.25;14.63;;;;;;;;;;5015544;28;20091;-93
2022/03/27 09:49:42;;;;;;;28.85;14.57;;;;;;;;;;5029338;28;20558;-91
2022/03/27 09:52:09;;;;;;;29.55;14.80;;;;;;;;;;5025495;28;20116;-92
2022/03/27 09:54:49;;;;;;;26.65;13.88;;;;;;;;;;5049294;28;20022;-92
2022/03/27 09:57:25;;;;;;;30.98;16.30;;;;;;;;;;5037518;28;20029;-91
2022/03/27 09:59:50;;;;;;;29.83;15.77;;;;;;;;;;5036940;28;20497;-93
2022/03/27 10:02:19;;;;;;;27.35;14.73;;;;;;;;;;5052613;28;20033;-92
2022/03/27 10:04:55;;;;;;;28.20;14.40;;;;;;;;;;5036362;28;20112;-92
2022/03/27 10:07:22;;;;;;;28.58;14.73;;;;;;;;;;5037253;28;20021;-94
2022/03/27 10:09:47;;;;;;;30.60;16.42;;;;;;;;;;5052214;28;20017;-93
2022/03/27 10:12:14;;;;;;;26.00;15.07;;;;;;;;;;5052934;28;20055;-93
2022/03/27 10:14:40;;;;;;;29.15;15.32;;;;;;;;;;5052933;28;20014;-93
2022/03/27 10:17:08;;;;;;;28.90;14.88;;;;;;;;;;5052856;28;20456;-93
2022/03/27 10:19:37;;;;;;;26.90;14.68;;;;;;;;;;5036215;28;20056;-92
2022/03/27 10:22:05;;;;;;;25.98;14.38;;;;;;;;;;5036234;28;20032;-93
2022/03/27 10:24:31;;;;;;;29.58;14.30;;;;;;;;;;5052007;28;20053;-94
2022/03/27 10:27:02;;;;;;;27.33;14.55;;;;;;;;;;5052370;28;20079;-94
2022/03/27 10:29:28;;;;;;;29.97;14.27;;;;;;;;;;5035195;28;20049;-94
2022/03/27 10:31:54;;;;;;;27.73;14.35;;;;;;;;;;5052188;28;20247;-92
2022/03/27 10:34:20;;;;;;;25.90;13.82;;;;;;;;;;5035613;28;20036;-93
2022/03/27 10:36:59;;;;;;;26.00;13.95;;;;;;;;;;5035791;28;20021;-93
2022/03/27 10:39:37;;;;;;;26.30;13.48;;;;;;;;;;5036576;28;20026;-93
2022/03/27 10:42:21;;;;;;;25.73;12.68;;;;;;;;;;5034181;28;20132;-93
2022/03/27 10:45:05;;;;;;;27.90;13.93;;;;;;;;;;5016731;28;20061;-93
2022/03/27 10:47:30;;;;;;;23.85;12.32;;;;;;;;;;5015610;28;20104;-94
2022/03/27 10:50:02;;;;;;;24.83;12.32;;;;;;;;;;5015376;28;20060;-94
2022/03/27 10:52:27;;;;;;;27.40;13.43;;;;;;;;;;5015953;28;20462;-93
2022/03/27 10:54:59;;;;;;;25.52;13.20;;;;;;;;;;5016376;28;20029;-93
2022/03/27 10:57:51;;;;;;;26.80;13.18;;;;;;;;;;5032275;28;20024;-94
2022/03/27 11:00:36;;;;;;;25.48;12.50;;;;;;;;;;5015360;28;20076;-93
2022/03/27 11:03:02;;;;;;;21.95;11.98;;;;;;;;;;5014312;28;20381;-93
2022/03/27 11:05:31;;;;;;;18.63;9.73;;;;;;;;;;5015215;28;20116;-93
2022/03/27 11:08:15;;;;;;;22.25;11.07;;;;;;;;;;5015472;28;20022;-92
2022/03/27 11:10:41;;;;;;;23.17;11.13;;;;;;;;;;5016220;28;20065;-93
2022/03/27 11:13:25;;;;;;;22.23;11.98;;;;;;;;;;5016023;28;20053;-93
2022/03/27 11:16:19;;;;;;;21.52;11.30;;;;;;;;;;5016256;28;20481;-92
2022/03/27 11:18:46;;;;;;;21.73;11.57;;;;;;;;;;5007377;28;20533;-94
2022/03/27 11:21:27;;;;;;;24.40;11.07;;;;;;;;;;5031337;28;20418;-93
2022/03/27 11:23:52;;;;;;;22.37;11.43;;;;;;;;;;5014703;28;20598;-93
2022/03/27 11:26:20;;;;;;;23.08;12.02;;;;;;;;;;5014658;28;20247;-93
2022/03/27 11:28:46;;;;;;;25.27;11.98;;;;;;;;;;5014578;28;20022;-92
2022/03/27 11:31:11;;;;;;;24.42;11.52;;;;;;;;;;5014276;28;20018;-90
2022/03/27 11:33:37;;;;;;;21.33;10.25;;;;;;;;;;5015696;28;20356;-93
2022/03/27 11:36:13;;;;;;;21.38;11.77;;;;;;;;;;5014593;28;20048;-94
2022/03/27 11:38:54;;;;;;;23.33;11.18;;;;;;;;;;5014784;28;20069;-86
2022/03/27 11:41:23;;;;;;;22.88;11.13;;;;;;;;;;5012867;28;20025;-86
2022/03/27 11:43:49;;;;;;;25.00;11.73;;;;;;;;;;5014357;28;20029;-86
2022/03/27 11:46:22;;;;;;;19.63;10.93;;;;;;;;;;5012994;28;20025;-86
2022/03/27 11:48:54;;;;;;;27.17;12.40;;;;;;;;;;5012608;28;20022;-86
2022/03/27 11:51:20;;;;;;;23.90;12.77;;;;;;;;;;5012947;28;20029;-86
2022/03/27 11:53:45;;;;;;;21.95;11.48;;;;;;;;;;5012776;28;20013;-86
2022/03/27 11:56:11;;;;;;;24.17;13.15;;;;;;;;;;5012374;28;20026;-87
2022/03/27 11:58:37;;;;;;;26.33;13.90;;;;;;;;;;5013064;28;20018;-86
2022/03/27 12:01:04;;;;;;;30.35;16.25;;;;;;;;;;5013081;28;20359;-86
2022/03/27 12:03:29;;;;;;;28.67;16.23;;;;;;;;;;5029383;28;20487;-85
2022/03/27 12:06:02;;;;;;;28.83;16.95;;;;;;;;;;5029182;28;20033;-87
2022/03/27 12:08:35;;;;;;;25.60;15.52;;;;;;;;;;5028833;28;20490;-87
2022/03/27 12:11:06;;;;;;;26.15;14.18;;;;;;;;;;5019706;28;20032;-96
2022/03/27 12:13:35;;;;;;;29.23;15.55;;;;;;;;;;5019130;28;20474;-88
2022/03/27 12:16:00;;;;;;;30.73;16.23;;;;;;;;;;5018040;28;20034;-95
2022/03/27 12:18:27;;;;;;;30.20;17.13;;;;;;;;;;5012910;28;20022;-94
2022/03/27 12:20:52;;;;;;;30.55;15.95;;;;;;;;;;5013813;28;20049;-93
2022/03/27 12:23:26;;;;;;;29.65;15.85;;;;;;;;;;5032139;28;20065;-95
2022/03/27 12:26:00;;;;;;;30.25;17.13;;;;;;;;;;5034755;28;20021;-94
2022/03/27 12:31:23;;;;;;;29.77;17.20;;;;;;;;;;5034833;28;20044;-94
2022/03/27 12:33:49;;;;;;;28.67;17.35;;;;;;;;;;5033196;28;20040;-90
2022/03/27 12:36:14;;;;;;;28.90;15.90;;;;;;;;;;5033257;28;20017;-95
2022/03/27 12:38:40;;;;;;;28.83;16.88;;;;;;;;;;5034401;28;20762;-90
2022/03/27 12:41:06;;;;;;;26.48;15.07;;;;;;;;;;5033357;28;20454;-93
2022/03/27 12:43:32;;;;;;;25.70;14.30;;;;;;;;;;5033653;28;20029;-94
2022/03/27 12:45:58;;;;;;;26.13;14.77;;;;;;;;;;5034555;28;20080;-93
2022/03/27 12:48:27;;;;;;;29.98;14.88;;;;;;;;;;5033338;28;20033;-94
2022/03/27 12:50:53;;;;;;;30.65;15.52;;;;;;;;;;5029724;28;20054;-89
2022/03/27 12:53:19;;;;;;;28.65;15.43;;;;;;;;;;5027280;28;20421;-95
2022/03/27 12:55:54;;;;;;;26.20;14.20;;;;;;;;;;5032345;28;20025;-95
2022/03/27 12:58:41;;;;;;;25.50;13.77;;;;;;;;;;5032994;28;20029;-94
2022/03/27 13:01:10;;;;;;;26.85;14.05;;;;;;;;;;5023221;28;20029;-86
2022/03/27 13:03:37;;;;;;;26.38;14.25;;;;;;;;;;5025985;28;20021;-94
2022/03/27 13:06:04;;;;;;;25.20;13.90;;;;;;;;;;5031265;28;20071;-92
2022/03/27 13:08:29;;;;;;;26.75;15.75;;;;;;;;;;5024596;28;20025;-93
2022/03/27 13:10:56;;;;;;;28.48;14.98;;;;;;;;;;5033303;28;20021;-86
2022/03/27 13:13:30;;;;;;;26.77;14.40;;;;;;;;;;5032599;28;20096;-92
2022/03/27 13:15:56;;;;;;;28.77;15.43;;;;;;;;;;5033240;28;20022;-91
2022/03/27 13:18:31;;;;;;;27.98;15.95;;;;;;;;;;5032287;28;20029;-94
2022/03/27 13:20:57;;;;;;;29.63;16.20;;;;;;;;;;5032807;28;20497;-92
2022/03/27 13:23:22;;;;;;;31.80;16.50;;;;;;;;;;5033442;28;20033;-88
2022/03/27 13:25:47;;;;;;;32.47;17.88;;;;;;;;;;5032531;28;20023;-90
2022/03/27 13:28:12;;;;;;;30.88;16.27;;;;;;;;;;5032415;28;20377;-92
2022/03/27 13:30:38;;;;;;;30.42;15.88;;;;;;;;;;5032903;28;20020;-94
2022/03/27 13:33:03;;;;;;;30.58;16.50;;;;;;;;;;5033464;28;20024;-92
2022/03/27 13:35:29;;;;;;;30.85;15.82;;;;;;;;;;5033567;28;20021;-91
2022/03/27 13:37:55;;;;;;;30.38;17.35;;;;;;;;;;5027626;28;20117;-92
2022/03/27 13:40:21;;;;;;;30.38;17.10;;;;;;;;;;5025633;28;20134;-93
2022/03/27 13:42:58;;;;;;;32.25;16.05;;;;;;;;;;5033423;28;20029;-94
2022/03/27 13:45:28;;;;;;;30.30;16.30;;;;;;;;;;5033615;28;20029;-90
2022/03/27 13:47:55;;;;;;;30.67;16.58;;;;;;;;;;5032537;28;20032;-86
2022/03/27 13:50:21;;;;;;;30.58;17.00;;;;;;;;;;5022950;28;20021;-94
2022/03/27 13:52:46;;;;;;;32.88;17.55;;;;;;;;;;5033210;28;20029;-93
2022/03/27 13:55:11;;;;;;;33.35;17.10;;;;;;;;;;5033376;28;20374;-86
2022/03/27 13:57:37;;;;;;;32.30;17.98;;;;;;;;;;5031990;28;20047;-91
2022/03/27 14:00:03;;;;;;;31.15;16.67;;;;;;;;;;5033149;28;20476;-86
2022/03/27 14:02:28;;;;;;;30.35;16.60;;;;;;;;;;5032036;28;20022;-93
2022/03/27 14:04:57;;;;;;;35.97;18.17;;;;;;;;;;5022661;28;20418;-92
2022/03/27 14:07:22;;;;;;;35.15;17.33;;;;;;;;;;5018578;28;20014;-87
2022/03/27 14:09:47;;;;;;;32.22;17.98;;;;;;;;;;5012174;28;20025;-92
2022/03/27 14:12:12;;;;;;;38.67;19.35;;;;;;;;;;5013166;28;20029;-90
2022/03/27 14:14:38;;;;;;;31.13;18.42;;;;;;;;;;5012588;28;20052;-85
2022/03/27 14:17:03;;;;;;;36.15;18.60;;;;;;;;;;5012289;28;20030;-92
2022/03/27 14:19:28;;;;;;;36.17;19.10;;;;;;;;;;5017596;28;20026;-91
2022/03/27 14:21:55;;;;;;;35.08;18.63;;;;;;;;;;5031791;28;20029;-87